sensor_id;sensor_type;location;lat;lon;timestamp;temperature;humidity
15203;DHT22;7702;51.046;5.184;2023-11-21T00:00:21;8.40;99.90
15203;DHT22;7702;51.046;5.184;2023-11-21T00:02:47;8.40;99.90
15203;DHT22;7702;51.046;5.184;2023-11-21T00:05:14;8.40;99.90
15203;DHT22;7702;51.046;5.184;2023-11-21T00:07:41;8.40;99.90
15203;DHT22;7702;51.046;5.184;2023-11-21T00:10:08;8.40;99.90
15203;DHT22;7702;51.046;5.184;2023-11-21T00:48:14;8.40;99.90
15203;DHT22;7702;51.046;5.184;2023-11-21T00:50:40;8.40;99.90
15203;DHT22;7702;51.046;5.184;2023-11-21T00:53:06;8.50;99.90
15203;DHT22;7702;51.046;5.184;2023-11-21T00:55:33;8.50;99.90
15203;DHT22;7702;51.046;5.184;2023-11-21T00:57:59;8.50;99.90
15203;DHT22;7702;51.046;5.184;2023-11-21T01:00:25;8.60;99.90
15203;DHT22;7702;51.046;5.184;2023-11-21T01:02:51;8.60;99.90
15203;DHT22;7702;51.046;5.184;2023-11-21T01:05:17;8.60;99.90
15203;DHT22;7702;51.046;5.184;2023-11-21T01:07:43;8.60;99.90
15203;DHT22;7702;51.046;5.184;2023-11-21T01:10:08;8.60;99.90
15203;DHT22;7702;51.046;5.184;2023-11-21T01:12:36;8.60;99.90
15203;DHT22;7702;51.046;5.184;2023-11-21T01:15:06;8.60;99.90
15203;DHT22;7702;51.046;5.184;2023-11-21T01:17:37;8.50;99.90
15203;DHT22;7702;51.046;5.184;2023-11-21T01:20:04;8.60;99.90
15203;DHT22;7702;51.046;5.184;2023-11-21T01:22:37;8.60;99.90
15203;DHT22;7702;51.046;5.184;2023-11-21T01:25:03;8.60;99.90
15203;DHT22;7702;51.046;5.184;2023-11-21T01:27:33;8.50;99.90
15203;DHT22;7702;51.046;5.184;2023-11-21T01:30:00;8.50;99.90
15203;DHT22;7702;51.046;5.184;2023-11-21T01:32:25;8.50;99.90
15203;DHT22;7702;51.046;5.184;2023-11-21T01:34:51;8.50;99.90
15203;DHT22;7702;51.046;5.184;2023-11-21T01:37:17;8.50;99.90
15203;DHT22;7702;51.046;5.184;2023-11-21T01:39:43;8.40;99.90
15203;DHT22;7702;51.046;5.184;2023-11-21T01:42:09;8.40;99.90
15203;DHT22;7702;51.046;5.184;2023-11-21T01:44:36;8.40;99.90
15203;DHT22;7702;51.046;5.184;2023-11-21T01:47:02;8.40;99.90
15203;DHT22;7702;51.046;5.184;2023-11-21T01:49:33;8.40;99.90
15203;DHT22;7702;51.046;5.184;2023-11-21T01:52:00;8.50;99.90
15203;DHT22;7702;51.046;5.184;2023-11-21T01:54:26;8.50;99.90
15203;DHT22;7702;51.046;5.184;2023-11-21T01:56:52;8.50;99.90
15203;DHT22;7702;51.046;5.184;2023-11-21T01:59:20;8.50;99.90
15203;DHT22;7702;51.046;5.184;2023-11-21T02:01:49;8.50;99.90
15203;DHT22;7702;51.046;5.184;2023-11-21T02:04:15;8.60;99.90
15203;DHT22;7702;51.046;5.184;2023-11-21T02:06:41;8.60;99.90
15203;DHT22;7702;51.046;5.184;2023-11-21T02:09:07;8.60;99.90
15203;DHT22;7702;51.046;5.184;2023-11-21T02:11:34;8.60;99.90
15203;DHT22;7702;51.046;5.184;2023-11-21T02:14:01;8.60;99.90
15203;DHT22;7702;51.046;5.184;2023-11-21T02:16:27;8.60;99.90
15203;DHT22;7702;51.046;5.184;2023-11-21T02:18:53;8.60;99.90
15203;DHT22;7702;51.046;5.184;2023-11-21T02:21:18;8.60;99.90
15203;DHT22;7702;51.046;5.184;2023-11-21T02:23:45;8.60;99.90
15203;DHT22;7702;51.046;5.184;2023-11-21T02:26:12;8.60;99.90
15203;DHT22;7702;51.046;5.184;2023-11-21T02:28:39;8.70;99.90
15203;DHT22;7702;51.046;5.184;2023-11-21T02:31:05;8.70;99.90
15203;DHT22;7702;51.046;5.184;2023-11-21T02:33:33;8.70;99.90
15203;DHT22;7702;51.046;5.184;2023-11-21T02:36:00;8.70;99.90
15203;DHT22;7702;51.046;5.184;2023-11-21T02:38:26;8.70;99.90
15203;DHT22;7702;51.046;5.184;2023-11-21T02:40:51;8.80;99.90
15203;DHT22;7702;51.046;5.184;2023-11-21T02:43:17;8.70;99.90
15203;DHT22;7702;51.046;5.184;2023-11-21T02:45:43;8.70;99.90
15203;DHT22;7702;51.046;5.184;2023-11-21T02:48:09;8.60;99.90
15203;DHT22;7702;51.046;5.184;2023-11-21T02:50:34;8.60;99.90
15203;DHT22;7702;51.046;5.184;2023-11-21T02:53:01;8.60;99.90
15203;DHT22;7702;51.046;5.184;2023-11-21T02:55:27;8.60;99.90
15203;DHT22;7702;51.046;5.184;2023-11-21T02:57:53;8.60;99.90
15203;DHT22;7702;51.046;5.184;2023-11-21T03:00:21;8.60;99.90
15203;DHT22;7702;51.046;5.184;2023-11-21T03:02:49;8.60;99.90
15203;DHT22;7702;51.046;5.184;2023-11-21T03:05:15;8.60;99.90
15203;DHT22;7702;51.046;5.184;2023-11-21T03:07:41;8.50;99.90
15203;DHT22;7702;51.046;5.184;2023-11-21T03:10:07;8.50;99.90
15203;DHT22;7702;51.046;5.184;2023-11-21T03:12:39;8.60;99.90
15203;DHT22;7702;51.046;5.184;2023-11-21T03:15:06;8.50;99.90
15203;DHT22;7702;51.046;5.184;2023-11-21T03:17:32;8.50;99.90
15203;DHT22;7702;51.046;5.184;2023-11-21T03:20:00;8.50;99.90
15203;DHT22;7702;51.046;5.184;2023-11-21T03:22:25;8.40;99.90
15203;DHT22;7702;51.046;5.184;2023-11-21T03:24:51;8.40;99.90
15203;DHT22;7702;51.046;5.184;2023-11-21T03:27:18;8.40;99.90
15203;DHT22;7702;51.046;5.184;2023-11-21T03:29:44;8.40;99.90
15203;DHT22;7702;51.046;5.184;2023-11-21T03:32:10;8.40;99.90
15203;DHT22;7702;51.046;5.184;2023-11-21T03:34:56;8.30;99.90
15203;DHT22;7702;51.046;5.184;2023-11-21T03:37:23;8.40;99.90
15203;DHT22;7702;51.046;5.184;2023-11-21T03:39:49;8.30;99.90
15203;DHT22;7702;51.046;5.184;2023-11-21T03:42:14;8.30;99.90
15203;DHT22;7702;51.046;5.184;2023-11-21T03:44:40;8.30;99.90
15203;DHT22;7702;51.046;5.184;2023-11-21T03:47:06;8.30;99.90
15203;DHT22;7702;51.046;5.184;2023-11-21T03:49:31;8.30;99.90
15203;DHT22;7702;51.046;5.184;2023-11-21T03:51:57;8.20;99.90
15203;DHT22;7702;51.046;5.184;2023-11-21T03:54:22;8.20;99.90
15203;DHT22;7702;51.046;5.184;2023-11-21T03:56:48;8.20;99.90
15203;DHT22;7702;51.046;5.184;2023-11-21T03:59:14;8.20;99.90
15203;DHT22;7702;51.046;5.184;2023-11-21T04:01:40;8.20;99.90
15203;DHT22;7702;51.046;5.184;2023-11-21T04:04:05;8.20;99.90
15203;DHT22;7702;51.046;5.184;2023-11-21T04:06:31;8.20;99.90
15203;DHT22;7702;51.046;5.184;2023-11-21T04:08:58;8.20;99.90
15203;DHT22;7702;51.046;5.184;2023-11-21T04:11:24;8.10;99.90
15203;DHT22;7702;51.046;5.184;2023-11-21T04:13:50;8.10;99.90
15203;DHT22;7702;51.046;5.184;2023-11-21T04:16:16;8.10;99.90
15203;DHT22;7702;51.046;5.184;2023-11-21T04:18:42;8.10;99.90
15203;DHT22;7702;51.046;5.184;2023-11-21T04:21:08;8.10;99.90
15203;DHT22;7702;51.046;5.184;2023-11-21T04:23:34;8.20;99.90
15203;DHT22;7702;51.046;5.184;2023-11-21T04:26:00;8.20;99.90
15203;DHT22;7702;51.046;5.184;2023-11-21T04:28:28;8.20;99.90
15203;DHT22;7702;51.046;5.184;2023-11-21T04:30:53;8.20;99.90
15203;DHT22;7702;51.046;5.184;2023-11-21T04:33:19;8.20;99.90
15203;DHT22;7702;51.046;5.184;2023-11-21T04:35:45;8.20;99.90
15203;DHT22;7702;51.046;5.184;2023-11-21T04:38:11;8.30;99.90
15203;DHT22;7702;51.046;5.184;2023-11-21T04:40:37;8.30;99.90
15203;DHT22;7702;51.046;5.184;2023-11-21T04:43:02;8.30;99.90
15203;DHT22;7702;51.046;5.184;2023-11-21T04:45:29;8.30;99.90
15203;DHT22;7702;51.046;5.184;2023-11-21T04:47:55;8.30;99.90
15203;DHT22;7702;51.046;5.184;2023-11-21T04:50:21;8.30;99.90
15203;DHT22;7702;51.046;5.184;2023-11-21T04:52:47;8.30;99.90
15203;DHT22;7702;51.046;5.184;2023-11-21T04:55:13;8.30;99.90
15203;DHT22;7702;51.046;5.184;2023-11-21T04:57:40;8.30;99.90
15203;DHT22;7702;51.046;5.184;2023-11-21T05:00:08;8.30;99.90
15203;DHT22;7702;51.046;5.184;2023-11-21T05:02:34;8.30;99.90
15203;DHT22;7702;51.046;5.184;2023-11-21T05:05:00;8.40;99.90
15203;DHT22;7702;51.046;5.184;2023-11-21T05:07:26;8.30;99.90
15203;DHT22;7702;51.046;5.184;2023-11-21T05:09:55;8.30;99.90
15203;DHT22;7702;51.046;5.184;2023-11-21T05:12:22;8.30;99.90
15203;DHT22;7702;51.046;5.184;2023-11-21T05:14:51;8.30;99.90
15203;DHT22;7702;51.046;5.184;2023-11-21T05:17:17;8.40;99.90
15203;DHT22;7702;51.046;5.184;2023-11-21T05:19:42;8.30;99.90
15203;DHT22;7702;51.046;5.184;2023-11-21T05:22:10;8.30;99.90
15203;DHT22;7702;51.046;5.184;2023-11-21T05:24:37;8.40;99.90
15203;DHT22;7702;51.046;5.184;2023-11-21T05:27:04;8.40;99.90
15203;DHT22;7702;51.046;5.184;2023-11-21T05:29:30;8.40;99.90
15203;DHT22;7702;51.046;5.184;2023-11-21T05:31:55;8.40;99.90
15203;DHT22;7702;51.046;5.184;2023-11-21T05:34:21;8.40;99.90
15203;DHT22;7702;51.046;5.184;2023-11-21T05:36:50;8.50;99.90
15203;DHT22;7702;51.046;5.184;2023-11-21T05:39:15;8.50;99.90
15203;DHT22;7702;51.046;5.184;2023-11-21T05:41:43;8.50;99.90
15203;DHT22;7702;51.046;5.184;2023-11-21T05:44:08;8.50;99.90
15203;DHT22;7702;51.046;5.184;2023-11-21T05:46:34;8.50;99.90
15203;DHT22;7702;51.046;5.184;2023-11-21T05:49:00;8.50;99.90
15203;DHT22;7702;51.046;5.184;2023-11-21T05:51:26;8.50;99.90
15203;DHT22;7702;51.046;5.184;2023-11-21T05:53:51;8.50;99.90
15203;DHT22;7702;51.046;5.184;2023-11-21T05:56:17;8.50;99.90
15203;DHT22;7702;51.046;5.184;2023-11-21T05:58:44;8.50;99.90
15203;DHT22;7702;51.046;5.184;2023-11-21T06:01:10;8.60;99.90
15203;DHT22;7702;51.046;5.184;2023-11-21T06:03:38;8.60;99.90
15203;DHT22;7702;51.046;5.184;2023-11-21T06:06:04;8.60;99.90
15203;DHT22;7702;51.046;5.184;2023-11-21T06:08:30;8.50;99.90
15203;DHT22;7702;51.046;5.184;2023-11-21T06:10:56;8.50;99.90
15203;DHT22;7702;51.046;5.184;2023-11-21T06:13:21;8.60;99.90
15203;DHT22;7702;51.046;5.184;2023-11-21T06:15:50;8.60;99.90
15203;DHT22;7702;51.046;5.184;2023-11-21T06:18:16;8.60;99.90
15203;DHT22;7702;51.046;5.184;2023-11-21T06:20:45;8.50;99.90
15203;DHT22;7702;51.046;5.184;2023-11-21T06:23:10;8.60;99.90
15203;DHT22;7702;51.046;5.184;2023-11-21T06:25:36;8.60;99.90
15203;DHT22;7702;51.046;5.184;2023-11-21T06:28:02;8.60;99.90
15203;DHT22;7702;51.046;5.184;2023-11-21T06:30:28;8.60;99.90
15203;DHT22;7702;51.046;5.184;2023-11-21T06:32:54;8.60;99.90
15203;DHT22;7702;51.046;5.184;2023-11-21T06:35:21;8.60;99.90
15203;DHT22;7702;51.046;5.184;2023-11-21T06:37:47;8.60;99.90
15203;DHT22;7702;51.046;5.184;2023-11-21T06:40:13;8.60;99.90
15203;DHT22;7702;51.046;5.184;2023-11-21T06:42:43;8.60;99.90
15203;DHT22;7702;51.046;5.184;2023-11-21T06:45:10;8.70;99.90
15203;DHT22;7702;51.046;5.184;2023-11-21T06:47:36;8.60;99.90
15203;DHT22;7702;51.046;5.184;2023-11-21T06:50:03;8.60;99.90
15203;DHT22;7702;51.046;5.184;2023-11-21T06:52:29;8.70;99.90
15203;DHT22;7702;51.046;5.184;2023-11-21T06:54:55;8.70;99.90
15203;DHT22;7702;51.046;5.184;2023-11-21T06:57:23;8.70;99.90
15203;DHT22;7702;51.046;5.184;2023-11-21T06:59:49;8.70;99.90
15203;DHT22;7702;51.046;5.184;2023-11-21T07:02:16;8.70;99.90
15203;DHT22;7702;51.046;5.184;2023-11-21T07:04:46;8.80;99.90
15203;DHT22;7702;51.046;5.184;2023-11-21T07:07:12;8.80;99.90
15203;DHT22;7702;51.046;5.184;2023-11-21T07:09:38;8.80;99.90
15203;DHT22;7702;51.046;5.184;2023-11-21T07:12:05;8.80;99.90
15203;DHT22;7702;51.046;5.184;2023-11-21T07:14:33;8.70;99.90
15203;DHT22;7702;51.046;5.184;2023-11-21T07:16:59;8.70;99.90
15203;DHT22;7702;51.046;5.184;2023-11-21T07:19:25;8.70;99.90
15203;DHT22;7702;51.046;5.184;2023-11-21T07:21:50;8.80;99.90
15203;DHT22;7702;51.046;5.184;2023-11-21T07:24:17;8.80;99.90
15203;DHT22;7702;51.046;5.184;2023-11-21T07:26:42;8.80;99.90
15203;DHT22;7702;51.046;5.184;2023-11-21T07:29:08;8.80;99.90
15203;DHT22;7702;51.046;5.184;2023-11-21T07:31:34;8.80;99.90
15203;DHT22;7702;51.046;5.184;2023-11-21T07:34:00;8.80;99.90
15203;DHT22;7702;51.046;5.184;2023-11-21T07:36:26;8.80;99.90
15203;DHT22;7702;51.046;5.184;2023-11-21T07:38:52;8.90;99.90
15203;DHT22;7702;51.046;5.184;2023-11-21T07:41:18;8.90;99.90
15203;DHT22;7702;51.046;5.184;2023-11-21T07:43:45;8.90;99.90
15203;DHT22;7702;51.046;5.184;2023-11-21T07:46:12;8.90;99.90
15203;DHT22;7702;51.046;5.184;2023-11-21T07:48:42;8.90;99.90
15203;DHT22;7702;51.046;5.184;2023-11-21T07:51:08;8.90;99.90
15203;DHT22;7702;51.046;5.184;2023-11-21T07:53:34;8.90;99.90
15203;DHT22;7702;51.046;5.184;2023-11-21T07:56:04;9.00;99.90
15203;DHT22;7702;51.046;5.184;2023-11-21T07:58:30;8.90;99.90
15203;DHT22;7702;51.046;5.184;2023-11-21T08:00:59;9.00;99.90
15203;DHT22;7702;51.046;5.184;2023-11-21T08:03:25;9.00;99.90
15203;DHT22;7702;51.046;5.184;2023-11-21T08:05:52;9.00;99.90
15203;DHT22;7702;51.046;5.184;2023-11-21T08:08:18;9.00;99.90
15203;DHT22;7702;51.046;5.184;2023-11-21T08:10:45;9.00;99.90
15203;DHT22;7702;51.046;5.184;2023-11-21T08:13:14;9.00;99.90
15203;DHT22;7702;51.046;5.184;2023-11-21T08:15:41;9.00;99.90
15203;DHT22;7702;51.046;5.184;2023-11-21T08:18:11;9.00;99.90
15203;DHT22;7702;51.046;5.184;2023-11-21T08:20:38;9.00;99.90
15203;DHT22;7702;51.046;5.184;2023-11-21T08:23:05;9.20;99.90
15203;DHT22;7702;51.046;5.184;2023-11-21T08:25:31;9.20;99.90
15203;DHT22;7702;51.046;5.184;2023-11-21T08:27:59;9.20;99.90
15203;DHT22;7702;51.046;5.184;2023-11-21T08:30:25;9.20;99.90
15203;DHT22;7702;51.046;5.184;2023-11-21T08:32:53;9.30;99.90
15203;DHT22;7702;51.046;5.184;2023-11-21T08:35:19;9.30;99.90
15203;DHT22;7702;51.046;5.184;2023-11-21T08:37:45;9.30;99.90
15203;DHT22;7702;51.046;5.184;2023-11-21T08:40:11;9.30;99.90
15203;DHT22;7702;51.046;5.184;2023-11-21T08:42:42;9.30;99.90
15203;DHT22;7702;51.046;5.184;2023-11-21T08:45:08;9.40;99.90
15203;DHT22;7702;51.046;5.184;2023-11-21T08:47:34;9.50;99.90
15203;DHT22;7702;51.046;5.184;2023-11-21T08:50:02;9.50;99.90
15203;DHT22;7702;51.046;5.184;2023-11-21T08:52:28;9.50;99.90
15203;DHT22;7702;51.046;5.184;2023-11-21T08:54:54;9.50;99.90
15203;DHT22;7702;51.046;5.184;2023-11-21T08:57:23;9.60;99.90
15203;DHT22;7702;51.046;5.184;2023-11-21T08:59:48;9.60;99.90
15203;DHT22;7702;51.046;5.184;2023-11-21T09:02:14;9.60;99.90
15203;DHT22;7702;51.046;5.184;2023-11-21T09:04:40;9.60;99.90
15203;DHT22;7702;51.046;5.184;2023-11-21T09:07:05;9.70;99.90
15203;DHT22;7702;51.046;5.184;2023-11-21T09:09:31;9.70;99.90
15203;DHT22;7702;51.046;5.184;2023-11-21T09:11:57;9.70;99.90
15203;DHT22;7702;51.046;5.184;2023-11-21T09:14:22;9.80;99.90
15203;DHT22;7702;51.046;5.184;2023-11-21T09:16:49;9.80;99.90
15203;DHT22;7702;51.046;5.184;2023-11-21T09:19:16;9.90;99.90
15203;DHT22;7702;51.046;5.184;2023-11-21T09:21:41;9.90;99.90
15203;DHT22;7702;51.046;5.184;2023-11-21T09:24:07;9.90;99.90
15203;DHT22;7702;51.046;5.184;2023-11-21T09:26:34;9.90;99.90
15203;DHT22;7702;51.046;5.184;2023-11-21T09:29:00;9.90;99.90
15203;DHT22;7702;51.046;5.184;2023-11-21T09:31:27;9.90;99.90
15203;DHT22;7702;51.046;5.184;2023-11-21T09:33:53;10.00;99.90
15203;DHT22;7702;51.046;5.184;2023-11-21T09:36:19;10.10;99.90
15203;DHT22;7702;51.046;5.184;2023-11-21T09:38:46;10.00;99.90
15203;DHT22;7702;51.046;5.184;2023-11-21T09:41:56;10.00;99.90
15203;DHT22;7702;51.046;5.184;2023-11-21T09:44:35;10.10;99.90
15203;DHT22;7702;51.046;5.184;2023-11-21T09:47:02;10.10;99.90
15203;DHT22;7702;51.046;5.184;2023-11-21T09:49:29;10.20;99.90
15203;DHT22;7702;51.046;5.184;2023-11-21T09:52:01;10.20;99.90
15203;DHT22;7702;51.046;5.184;2023-11-21T09:54:30;10.20;99.90
15203;DHT22;7702;51.046;5.184;2023-11-21T09:56:59;10.30;99.90
15203;DHT22;7702;51.046;5.184;2023-11-21T09:59:29;10.30;99.90
15203;DHT22;7702;51.046;5.184;2023-11-21T10:01:56;10.40;99.90
15203;DHT22;7702;51.046;5.184;2023-11-21T10:04:24;10.40;99.90
15203;DHT22;7702;51.046;5.184;2023-11-21T10:06:50;10.40;99.90
15203;DHT22;7702;51.046;5.184;2023-11-21T10:09:17;10.40;99.90
15203;DHT22;7702;51.046;5.184;2023-11-21T10:11:46;10.40;99.90
15203;DHT22;7702;51.046;5.184;2023-11-21T10:14:13;10.50;99.90
15203;DHT22;7702;51.046;5.184;2023-11-21T10:16:41;10.50;99.90
15203;DHT22;7702;51.046;5.184;2023-11-21T10:19:10;10.60;99.90
15203;DHT22;7702;51.046;5.184;2023-11-21T10:21:38;10.70;99.90
15203;DHT22;7702;51.046;5.184;2023-11-21T10:24:04;10.70;99.90
15203;DHT22;7702;51.046;5.184;2023-11-21T10:26:31;10.70;99.90
15203;DHT22;7702;51.046;5.184;2023-11-21T10:29:02;10.70;99.90
15203;DHT22;7702;51.046;5.184;2023-11-21T10:31:31;10.70;99.90
15203;DHT22;7702;51.046;5.184;2023-11-21T10:34:16;10.60;99.90
15203;DHT22;7702;51.046;5.184;2023-11-21T10:36:42;10.50;99.90
15203;DHT22;7702;51.046;5.184;2023-11-21T10:39:08;10.50;99.90
15203;DHT22;7702;51.046;5.184;2023-11-21T10:41:37;10.60;99.90
15203;DHT22;7702;51.046;5.184;2023-11-21T10:44:03;10.70;99.90
15203;DHT22;7702;51.046;5.184;2023-11-21T10:46:32;10.70;99.90
15203;DHT22;7702;51.046;5.184;2023-11-21T10:48:59;10.70;99.90
15203;DHT22;7702;51.046;5.184;2023-11-21T10:51:25;10.70;99.90
15203;DHT22;7702;51.046;5.184;2023-11-21T10:53:52;10.80;99.90
15203;DHT22;7702;51.046;5.184;2023-11-21T10:56:19;10.90;99.90
15203;DHT22;7702;51.046;5.184;2023-11-21T10:58:50;11.00;99.90
15203;DHT22;7702;51.046;5.184;2023-11-21T11:01:19;11.00;99.90
15203;DHT22;7702;51.046;5.184;2023-11-21T11:03:47;11.00;99.90
15203;DHT22;7702;51.046;5.184;2023-11-21T11:06:14;10.90;99.90
15203;DHT22;7702;51.046;5.184;2023-11-21T11:08:40;10.90;99.90
15203;DHT22;7702;51.046;5.184;2023-11-21T11:11:07;10.80;99.90
15203;DHT22;7702;51.046;5.184;2023-11-21T11:13:32;10.80;99.90
15203;DHT22;7702;51.046;5.184;2023-11-21T11:16:00;10.80;99.90
15203;DHT22;7702;51.046;5.184;2023-11-21T11:18:28;10.70;99.90
15203;DHT22;7702;51.046;5.184;2023-11-21T11:21:00;10.70;99.90
15203;DHT22;7702;51.046;5.184;2023-11-21T11:26:47;10.60;99.90
15203;DHT22;7702;51.046;5.184;2023-11-21T11:36:51;10.60;99.90
15203;DHT22;7702;51.046;5.184;2023-11-21T11:39:32;10.60;99.90
15203;DHT22;7702;51.046;5.184;2023-11-21T11:42:03;10.60;99.90
15203;DHT22;7702;51.046;5.184;2023-11-21T11:47:19;10.70;99.90
15203;DHT22;7702;51.046;5.184;2023-11-21T11:50:12;10.80;99.90
15203;DHT22;7702;51.046;5.184;2023-11-21T11:52:51;10.70;99.90
15203;DHT22;7702;51.046;5.184;2023-11-21T11:55:19;10.70;99.90
15203;DHT22;7702;51.046;5.184;2023-11-21T11:57:54;10.70;99.90
15203;DHT22;7702;51.046;5.184;2023-11-21T12:03:01;10.70;99.90
15203;DHT22;7702;51.046;5.184;2023-11-21T12:05:32;10.70;99.90
15203;DHT22;7702;51.046;5.184;2023-11-21T12:08:01;10.80;99.90
15203;DHT22;7702;51.046;5.184;2023-11-21T12:10:28;10.80;99.90
15203;DHT22;7702;51.046;5.184;2023-11-21T12:13:02;10.70;99.90
15203;DHT22;7702;51.046;5.184;2023-11-21T12:15:28;10.80;99.90
15203;DHT22;7702;51.046;5.184;2023-11-21T12:17:57;10.80;99.90
15203;DHT22;7702;51.046;5.184;2023-11-21T12:20:26;10.70;99.90
15203;DHT22;7702;51.046;5.184;2023-11-21T12:22:54;10.80;99.90
15203;DHT22;7702;51.046;5.184;2023-11-21T12:25:25;10.80;99.90
15203;DHT22;7702;51.046;5.184;2023-11-21T12:27:54;10.90;99.90
15203;DHT22;7702;51.046;5.184;2023-11-21T12:30:22;10.90;99.90
15203;DHT22;7702;51.046;5.184;2023-11-21T12:32:50;11.20;99.90
15203;DHT22;7702;51.046;5.184;2023-11-21T12:35:19;11.20;99.90
15203;DHT22;7702;51.046;5.184;2023-11-21T12:37:47;11.40;99.90
15203;DHT22;7702;51.046;5.184;2023-11-21T12:40:14;11.60;99.90
15203;DHT22;7702;51.046;5.184;2023-11-21T12:42:44;11.60;99.90
15203;DHT22;7702;51.046;5.184;2023-11-21T12:47:55;11.80;99.90
15203;DHT22;7702;51.046;5.184;2023-11-21T12:50:25;11.60;99.90
15203;DHT22;7702;51.046;5.184;2023-11-21T12:52:57;11.50;99.90
15203;DHT22;7702;51.046;5.184;2023-11-21T12:55:23;11.60;99.90
15203;DHT22;7702;51.046;5.184;2023-11-21T12:57:51;11.70;99.90
15203;DHT22;7702;51.046;5.184;2023-11-21T13:00:17;11.80;99.90
15203;DHT22;7702;51.046;5.184;2023-11-21T13:02:57;11.60;99.90
15203;DHT22;7702;51.046;5.184;2023-11-21T13:05:25;11.60;99.90
15203;DHT22;7702;51.046;5.184;2023-11-21T13:07:50;11.50;99.90
15203;DHT22;7702;51.046;5.184;2023-11-21T13:10:22;11.70;99.90
15203;DHT22;7702;51.046;5.184;2023-11-21T13:12:53;11.80;99.90
15203;DHT22;7702;51.046;5.184;2023-11-21T13:15:20;11.90;99.90
15203;DHT22;7702;51.046;5.184;2023-11-21T13:17:46;11.90;99.90
15203;DHT22;7702;51.046;5.184;2023-11-21T13:20:12;11.90;99.90
15203;DHT22;7702;51.046;5.184;2023-11-21T13:23:09;11.90;99.90
15203;DHT22;7702;51.046;5.184;2023-11-21T13:25:37;11.80;99.90
15203;DHT22;7702;51.046;5.184;2023-11-21T13:28:04;11.70;99.90
15203;DHT22;7702;51.046;5.184;2023-11-21T13:30:31;11.70;99.90
15203;DHT22;7702;51.046;5.184;2023-11-21T13:33:01;11.90;99.90
15203;DHT22;7702;51.046;5.184;2023-11-21T13:35:40;11.90;99.90
15203;DHT22;7702;51.046;5.184;2023-11-21T13:38:11;11.90;99.90
15203;DHT22;7702;51.046;5.184;2023-11-21T13:40:39;11.90;99.90
15203;DHT22;7702;51.046;5.184;2023-11-21T13:43:19;12.00;99.90
15203;DHT22;7702;51.046;5.184;2023-11-21T13:45:48;12.10;99.90
15203;DHT22;7702;51.046;5.184;2023-11-21T13:48:17;12.10;99.90
15203;DHT22;7702;51.046;5.184;2023-11-21T13:50:50;12.10;99.90
15203;DHT22;7702;51.046;5.184;2023-11-21T13:53:49;12.10;99.90
15203;DHT22;7702;51.046;5.184;2023-11-21T13:56:18;12.10;99.90
15203;DHT22;7702;51.046;5.184;2023-11-21T13:58:51;12.20;99.90
15203;DHT22;7702;51.046;5.184;2023-11-21T14:01:18;12.10;99.90
15203;DHT22;7702;51.046;5.184;2023-11-21T14:03:56;12.00;99.90
15203;DHT22;7702;51.046;5.184;2023-11-21T14:06:28;11.90;99.90
15203;DHT22;7702;51.046;5.184;2023-11-21T14:09:00;11.70;99.90
15203;DHT22;7702;51.046;5.184;2023-11-21T14:11:30;11.70;99.90
15203;DHT22;7702;51.046;5.184;2023-11-21T14:13:57;11.70;99.90
15203;DHT22;7702;51.046;5.184;2023-11-21T14:16:25;11.60;99.90
15203;DHT22;7702;51.046;5.184;2023-11-21T14:18:51;11.50;99.90
15203;DHT22;7702;51.046;5.184;2023-11-21T14:21:29;11.40;99.90
15203;DHT22;7702;51.046;5.184;2023-11-21T14:23:54;11.40;99.90
15203;DHT22;7702;51.046;5.184;2023-11-21T14:26:21;11.40;99.90
15203;DHT22;7702;51.046;5.184;2023-11-21T14:28:46;11.40;99.90
15203;DHT22;7702;51.046;5.184;2023-11-21T14:31:14;11.40;99.90
15203;DHT22;7702;51.046;5.184;2023-11-21T14:33:43;11.40;99.90
15203;DHT22;7702;51.046;5.184;2023-11-21T14:36:09;11.50;99.90
15203;DHT22;7702;51.046;5.184;2023-11-21T14:38:36;11.50;99.90
15203;DHT22;7702;51.046;5.184;2023-11-21T14:41:03;11.40;99.90
15203;DHT22;7702;51.046;5.184;2023-11-21T14:43:29;11.40;99.90
15203;DHT22;7702;51.046;5.184;2023-11-21T14:45:59;11.40;99.90
15203;DHT22;7702;51.046;5.184;2023-11-21T14:48:25;11.30;99.90
15203;DHT22;7702;51.046;5.184;2023-11-21T14:51:08;11.30;99.90
15203;DHT22;7702;51.046;5.184;2023-11-21T14:53:56;11.30;99.90
15203;DHT22;7702;51.046;5.184;2023-11-21T14:56:26;11.40;99.90
15203;DHT22;7702;51.046;5.184;2023-11-21T14:58:57;11.50;99.90
15203;DHT22;7702;51.046;5.184;2023-11-21T15:01:23;11.40;99.90
15203;DHT22;7702;51.046;5.184;2023-11-21T15:04:08;11.40;99.90
15203;DHT22;7702;51.046;5.184;2023-11-21T15:06:40;11.30;99.90
15203;DHT22;7702;51.046;5.184;2023-11-21T15:09:08;11.40;99.90
15203;DHT22;7702;51.046;5.184;2023-11-21T15:11:53;11.30;99.90
15203;DHT22;7702;51.046;5.184;2023-11-21T15:14:24;11.30;99.90
15203;DHT22;7702;51.046;5.184;2023-11-21T15:16:51;11.30;99.90
15203;DHT22;7702;51.046;5.184;2023-11-21T15:19:19;11.20;99.90
15203;DHT22;7702;51.046;5.184;2023-11-21T15:21:50;11.20;99.90
15203;DHT22;7702;51.046;5.184;2023-11-21T15:24:16;11.20;99.90
15203;DHT22;7702;51.046;5.184;2023-11-21T15:26:42;11.20;99.90
15203;DHT22;7702;51.046;5.184;2023-11-21T15:29:08;11.00;99.90
15203;DHT22;7702;51.046;5.184;2023-11-21T15:31:34;11.00;99.90
15203;DHT22;7702;51.046;5.184;2023-11-21T15:34:02;11.00;99.90
15203;DHT22;7702;51.046;5.184;2023-11-21T15:36:30;10.90;99.90
15203;DHT22;7702;51.046;5.184;2023-11-21T15:38:56;11.00;99.90
15203;DHT22;7702;51.046;5.184;2023-11-21T15:41:21;10.90;99.90
15203;DHT22;7702;51.046;5.184;2023-11-21T15:43:47;11.00;99.90
15203;DHT22;7702;51.046;5.184;2023-11-21T15:46:15;11.00;99.90
15203;DHT22;7702;51.046;5.184;2023-11-21T15:48:41;10.90;99.90
15203;DHT22;7702;51.046;5.184;2023-11-21T15:51:15;10.80;99.90
15203;DHT22;7702;51.046;5.184;2023-11-21T15:53:42;10.80;99.90
15203;DHT22;7702;51.046;5.184;2023-11-21T15:56:08;10.80;99.90
15203;DHT22;7702;51.046;5.184;2023-11-21T15:58:38;10.70;99.90
15203;DHT22;7702;51.046;5.184;2023-11-21T16:01:06;10.60;99.90
15203;DHT22;7702;51.046;5.184;2023-11-21T16:03:35;10.70;99.90
15203;DHT22;7702;51.046;5.184;2023-11-21T16:06:01;10.70;99.90
15203;DHT22;7702;51.046;5.184;2023-11-21T16:08:28;10.60;99.90
15203;DHT22;7702;51.046;5.184;2023-11-21T16:10:54;10.60;99.90
15203;DHT22;7702;51.046;5.184;2023-11-21T16:13:20;10.50;99.90
15203;DHT22;7702;51.046;5.184;2023-11-21T16:15:46;10.60;99.90
15203;DHT22;7702;51.046;5.184;2023-11-21T16:18:13;10.60;99.90
15203;DHT22;7702;51.046;5.184;2023-11-21T16:20:38;10.60;99.90
15203;DHT22;7702;51.046;5.184;2023-11-21T16:23:04;10.50;99.90
15203;DHT22;7702;51.046;5.184;2023-11-21T16:25:30;10.50;99.90
15203;DHT22;7702;51.046;5.184;2023-11-21T16:27:55;10.50;99.90
15203;DHT22;7702;51.046;5.184;2023-11-21T16:30:24;10.60;99.90
15203;DHT22;7702;51.046;5.184;2023-11-21T16:32:50;10.60;99.90
15203;DHT22;7702;51.046;5.184;2023-11-21T16:35:16;10.60;99.90
15203;DHT22;7702;51.046;5.184;2023-11-21T16:37:43;10.60;99.90
15203;DHT22;7702;51.046;5.184;2023-11-21T16:40:09;10.50;99.90
15203;DHT22;7702;51.046;5.184;2023-11-21T16:42:36;10.40;99.90
15203;DHT22;7702;51.046;5.184;2023-11-21T16:45:04;10.40;99.90
15203;DHT22;7702;51.046;5.184;2023-11-21T16:47:30;10.50;99.90
15203;DHT22;7702;51.046;5.184;2023-11-21T16:49:55;10.50;99.90
15203;DHT22;7702;51.046;5.184;2023-11-21T16:52:21;10.50;99.90